Sch-135 Galibier — PBIB — position and weather

sailwx.info

Track history (hours):
 
Tides and Currents Weather Stations Pressure Air Temp Water Temp Dewpoint Dewpoint Depression Visibility Wind Speed Wind Dir Waves Ship Positions

Sch-135 Galibier

Last reported at 2017-Nov-02 19:58 UTC. Time now 2017-Nov-19 06:34 UTC.
Position N 50°53' E 001°34'.
Warning: this ship's position is 16 days out of date.

Length 35 m.

MMSI: 244630637.

Date/timePositionNaut miles runAvg speedWind from/ knotsBaromVisibWave heightAir tempDewpointWater temp
2017-Nov-02 19:58N 50°53' E 001°34'4 9.7
2017-Nov-02 19:31N 50°57' E 001°38'611.4
2017-Nov-02 19:01N 51°02' E 001°43'510.6
2017-Nov-02 18:31N 51°07' E 001°46'510.7
2017-Nov-02 18:01N 51°12' E 001°44'5 9.6
2017-Nov-02 17:31N 51°15' E 001°49'611.8
2017-Nov-02 17:01N 51°20' E 001°55'611.0
2017-Nov-02 16:30N 51°24' E 001°60'510.4
2017-Nov-02 16:00N 51°29' E 002°05'5 9.7
2017-Nov-02 15:28N 51°32' E 002°11'0 0.3
2017-Nov-02 15:00N 51°32' E 002°11'0 0.5
2017-Nov-02 14:30N 51°32' E 002°11'1 1.5
2017-Nov-02 14:00N 51°31' E 002°10'1 1.8
2017-Nov-02 13:29N 51°31' E 002°09'1 1.3
2017-Nov-02 12:58N 51°31' E 002°08'1 1.9
2017-Nov-02 12:29N 51°30' E 002°08'0 0.1
2017-Nov-02 12:00N 51°30' E 002°08'1 1.1
2017-Nov-02 11:30N 51°30' E 002°07'1 1.7
2017-Nov-02 11:00N 51°29' E 002°06'6 7.9
2017-Nov-02 10:12N 51°33' E 002°14'1 1.1
2017-Nov-02 09:22N 51°34' E 002°14'1 3.5
2017-Nov-02 08:59N 51°34' E 002°12'1 1.2
2017-Nov-02 08:28N 51°33' E 002°13'2 3.4
2017-Nov-02 07:59N 51°35' E 002°15'1 1.2
2017-Nov-02 07:27N 51°35' E 002°15'0 0.8
2017-Nov-02 07:00N 51°36' E 002°15'1 1.4
2017-Nov-02 06:30N 51°35' E 002°17'1 1.1
2017-Nov-02 06:00N 51°36' E 002°17'0 0.4
2017-Nov-02 05:25N 51°36' E 002°17'1 2.2
2017-Nov-02 05:00N 51°37' E 002°18'1 2.6
2017-Nov-02 04:30N 51°36' E 002°17'1 2.9
2017-Nov-02 04:00N 51°35' E 002°15'1 1.2
2017-Nov-02 03:30N 51°34' E 002°15'2 3.5
2017-Nov-02 02:59N 51°36' E 002°17'2 4.2
2017-Nov-02 02:30N 51°34' E 002°14'2 3.6
2017-Nov-02 01:59N 51°33' E 002°12'1 2.5
2017-Nov-02 01:29N 51°34' E 002°14'1 2.3
2017-Nov-02 00:55N 51°35' E 002°15'1 2.0
2017-Nov-02 00:28N 51°35' E 002°16'1 1.4
2017-Nov-02 00:00N 51°36' E 002°17'3 5.9
2017-Nov-01 23:30N 51°34' E 002°14'3 5.9
2017-Nov-01 23:00N 51°32' E 002°10'3 5.5
2017-Nov-01 22:30N 51°30' E 002°07'2 5.0
2017-Nov-01 22:00N 51°28' E 002°04'1 2.6
2017-Nov-01 21:30N 51°29' E 002°05'2 3.3
2017-Nov-01 21:00N 51°30' E 002°07'3 4.2
2017-Nov-01 20:21N 51°31' E 002°12'1 3.1
2017-Nov-01 20:00N 51°31' E 002°13'0 0.1
2017-Nov-01 19:30N 51°31' E 002°13'2 3.0
2017-Nov-01 19:00N 51°32' E 002°11'1 2.1
2017-Nov-01 18:27N 51°32' E 002°10'47 2.9
2017-Nov-01 01:58N 50°50' E 001°33'4 8.9
2017-Nov-01 01:30N 50°46' E 001°34'2 4.9
2017-Nov-01 01:00N 50°44' E 001°35'0 0.3
2017-Nov-01 00:19N 50°43' E 001°35'0 0.0
2017-Oct-31 23:56N 50°43' E 001°35'0 0.0
2017-Oct-31 23:23N 50°43' E 001°35'0 0.5
2017-Oct-31 23:00N 50°44' E 001°35'0 0.0
2017-Oct-31 22:30N 50°44' E 001°35'0 0.0
2017-Oct-31 21:58N 50°44' E 001°35'0 0.2
2017-Oct-31 21:31N 50°44' E 001°35'4 7.3
2017-Oct-31 20:54N 50°48' E 001°34'3 7.6
2017-Oct-31 20:29N 50°51' E 001°34'3 6.5
2017-Oct-31 20:00N 50°54' E 001°35'5 7.3
2017-Oct-31 19:23N 50°58' E 001°40'3 7.8
2017-Oct-31 19:00N 50°60' E 001°43'4 8.5
2017-Oct-31 18:30N 51°03' E 001°47'5 9.5
2017-Oct-31 18:00N 51°06' E 001°53'5 9.6
2017-Oct-31 17:30N 51°10' E 001°57'2 4.1
2017-Oct-31 17:01N 51°12' E 001°57'0 0.9
2017-Oct-31 16:30N 51°13' E 001°58'0 0.9
2017-Oct-31 16:00N 51°13' E 001°58'3 5.6
2017-Oct-31 15:30N 51°14' E 002°02'0 0.7
2017-Oct-31 15:00N 51°14' E 002°03'1 2.6
2017-Oct-31 14:30N 51°14' E 002°05'2 3.4
2017-Oct-31 14:00N 51°14' E 002°02'0 0.5
2017-Oct-31 13:30N 51°14' E 002°02'1 1.8
2017-Oct-31 13:00N 51°13' E 002°01'1 1.4
2017-Oct-31 12:30N 51°12' E 002°00'0 0.8
2017-Oct-31 12:01N 51°12' E 001°60'1 1.8
2017-Oct-31 11:30N 51°11' E 001°59'2 3.3
2017-Oct-31 11:00N 51°13' E 001°59'0 1.0
2017-Oct-31 10:30N 51°13' E 001°59'1 1.5
2017-Oct-31 10:01N 51°12' E 001°58'0 0.7
2017-Oct-31 09:30N 51°12' E 001°59'0 0.9
2017-Oct-31 09:00N 51°12' E 001°58'1 1.8
2017-Oct-31 08:30N 51°11' E 001°57'1 2.4
2017-Oct-31 08:00N 51°12' E 001°57'0 0.9
2017-Oct-31 07:31N 51°12' E 001°57'0 0.6
2017-Oct-31 07:00N 51°12' E 001°56'3 6.7
2017-Oct-31 06:30N 51°13' E 002°01'0 1.0
2017-Oct-31 06:00N 51°13' E 002°01'1 2.9
2017-Oct-31 05:31N 51°14' E 002°03'2 3.8
2017-Oct-31 05:01N 51°14' E 002°00'1 2.8
2017-Oct-31 04:30N 51°13' E 001°58'1 2.7
2017-Oct-31 04:00N 51°12' E 001°56'1 2.4
2017-Oct-31 03:30N 51°12' E 001°55'2 3.9
2017-Oct-31 03:00N 51°13' E 001°57'2 4.6
2017-Oct-31 02:31N 51°14' E 002°00'2 3.2
2017-Oct-31 02:00N 51°14' E 001°58'2 3.3
2017-Oct-31 01:30N 51°13' E 001°56'2 3.4
2017-Oct-31 01:00N 51°14' E 001°58'2 4.1
2017-Oct-31 00:30N 51°15' E 002°00'0 0.1
2017-Oct-31 00:01N 51°15' E 002°00'2 4.3
2017-Oct-30 23:30N 51°14' E 001°58'2 4.1
2017-Oct-30 23:00N 51°12' E 001°56'2 3.1
2017-Oct-30 22:30N 51°13' E 001°58'1 2.9
2017-Oct-30 22:01N 51°15' E 001°58'4 8.3
2017-Oct-30 21:30N 51°19' E 001°56'3 6.4
2017-Oct-30 21:00N 51°22' E 001°56'2 4.9
2017-Oct-30 20:30N 51°24' E 001°59'3 5.2
2017-Oct-30 20:00N 51°26' E 002°01'3 5.4
2017-Oct-30 19:30N 51°27' E 002°04'2 3.6
2017-Oct-30 18:59N 51°29' E 002°06'0 0.7
2017-Oct-30 18:29N 51°29' E 002°07'0 1.0
2017-Oct-30 18:00N 51°30' E 002°07'1 1.3
2017-Oct-30 17:28N 51°30' E 002°07'1 2.0
2017-Oct-30 16:56N 51°31' E 002°09'0 0.7
2017-Oct-30 16:29N 51°31' E 002°09'1 2.0
2017-Oct-30 16:00N 51°31' E 002°10'0 0.7
2017-Oct-30 15:27N 51°31' E 002°10'1 1.4
2017-Oct-30 15:00N 51°32' E 002°11'0 0.9
2017-Oct-30 14:30N 51°32' E 002°11'1 1.0
2017-Oct-30 13:30N 51°33' E 002°12'1 2.2
2017-Oct-30 13:00N 51°34' E 002°12'2 4.8
2017-Oct-30 12:30N 51°32' E 002°10'2 3.5
2017-Oct-30 12:00N 51°30' E 002°08'0 0.7
2017-Oct-30 11:29N 51°30' E 002°08'0 0.5
2017-Oct-30 11:00N 51°30' E 002°08'1 1.4
2017-Oct-30 10:30N 51°30' E 002°07'1 2.1
2017-Oct-30 09:59N 51°29' E 002°06'1 1.7
2017-Oct-30 09:30N 51°28' E 002°05'0 1.0
2017-Oct-30 09:01N 51°28' E 002°04'1 2.7
2017-Oct-30 08:31N 51°27' E 002°03'1 2.5
2017-Oct-30 08:00N 51°26' E 002°03'1 1.2
2017-Oct-30 07:30N 51°27' E 002°03'0 0.8
2017-Oct-30 07:01N 51°26' E 002°02'1 1.9
2017-Oct-30 06:30N 51°25' E 002°03'4 8.9
2017-Oct-30 06:00N 51°21' E 002°02'4 8.5
2017-Oct-30 05:30N 51°17' E 001°60'4 8.5
2017-Oct-30 05:00N 51°13' E 001°56'4 8.3
2017-Oct-30 04:30N 51°11' E 001°51'4 7.8
2017-Oct-30 04:01N 51°08' E 001°47'4 7.2
2017-Oct-30 03:30N 51°05' E 001°44'4 7.1
2017-Oct-30 03:00N 51°02' E 001°41'4 7.1
2017-Oct-30 02:30N 50°59' E 001°38'4 7.2
2017-Oct-30 01:59N 50°56' E 001°35'3 6.8
2017-Oct-30 01:30N 50°53' E 001°33'  
2017-Oct-26 18:42N 50°52' E 001°33'210.6
2017-Oct-26 18:29N 50°54' E 001°35'5 9.9
2017-Oct-26 17:58N 50°58' E 001°41'4 9.4
2017-Oct-26 17:30N 51°01' E 001°46'6 8.9
2017-Oct-26 16:51N 51°05' E 001°52'1 2.5
2017-Oct-26 16:30N 51°06' E 001°53'2 4.0
2017-Oct-26 16:00N 51°08' E 001°54'1 1.4
2017-Oct-26 15:30N 51°07' E 001°53'1 2.8
2017-Oct-26 15:00N 51°07' E 001°51'2 3.2
2017-Oct-26 14:31N 51°09' E 001°52'0 0.8
2017-Oct-26 14:00N 51°09' E 001°53'1 2.4
2017-Oct-26 13:30N 51°10' E 001°54'1 3.0
2017-Oct-26 13:00N 51°11' E 001°55'1 1.7
2017-Oct-26 12:30N 51°12' E 001°56'1 2.0
2017-Oct-26 12:00N 51°12' E 001°58'0 0.7
2017-Oct-26 11:30N 51°12' E 001°57'1 1.2
2017-Oct-26 11:00N 51°12' E 001°58'1 2.9
2017-Oct-26 10:30N 51°13' E 001°60'1 1.1
2017-Oct-26 10:01N 51°13' E 002°01'1 1.4
2017-Oct-26 09:30N 51°13' E 002°01'1 1.6
2017-Oct-26 09:00N 51°14' E 002°03'1 2.7
2017-Oct-26 08:30N 51°13' E 002°01'1 2.8
2017-Oct-26 08:00N 51°12' E 001°59'0 0.5
2017-Oct-26 07:31N 51°12' E 001°59'0 0.9
2017-Oct-26 07:00N 51°12' E 001°59'1 1.2
2017-Oct-26 06:30N 51°12' E 001°58'1 2.5
2017-Oct-26 06:00N 51°12' E 001°56'1 2.5
2017-Oct-26 05:30N 51°13' E 001°57'2 3.7
2017-Oct-26 05:00N 51°14' E 001°60'1 1.4
2017-Oct-26 04:30N 51°13' E 001°59'3 5.1
2017-Oct-26 04:00N 51°12' E 001°55'1 2.2
2017-Oct-26 03:30N 51°13' E 001°56'1 2.4
2017-Oct-26 03:00N 51°14' E 001°58'1 2.7
2017-Oct-26 02:30N 51°14' E 001°60'0 0.8
2017-Oct-26 02:00N 51°15' E 001°59'2 4.7
2017-Oct-26 01:30N 51°13' E 001°56'2 4.2
2017-Oct-26 01:00N 51°12' E 001°54'2 3.7
2017-Oct-26 00:30N 51°11' E 001°52'1 1.5
2017-Oct-26 00:00N 51°10' E 001°52'1 1.4
2017-Oct-25 23:30N 51°11' E 001°53'1 1.7
2017-Oct-25 23:00N 51°11' E 001°54'1 1.9
2017-Oct-25 22:30N 51°12' E 001°55'2 4.7
2017-Oct-25 22:00N 51°14' E 001°56'4 7.6
2017-Oct-25 21:30N 51°18' E 001°55'4 7.2
2017-Oct-25 21:00N 51°21' E 001°57'3 6.7
2017-Oct-25 20:31N 51°24' E 001°60'3 6.4
2017-Oct-25 20:00N 51°27' E 002°03'2 3.7
2017-Oct-25 19:29N 51°28' E 002°05'2 3.3
2017-Oct-25 18:59N 51°29' E 002°06'2 4.0
2017-Oct-25 18:30N 51°31' E 002°08'1 1.8
2017-Oct-25 18:00N 51°32' E 002°09'1 1.1
2017-Oct-25 17:28N 51°31' E 002°08'0 1.0
2017-Oct-25 17:00N 51°31' E 002°08'1 1.1
2017-Oct-25 16:30N 51°31' E 002°09'0 0.9
2017-Oct-25 15:59N 51°30' E 002°09'1 2.0
2017-Oct-25 15:30N 51°29' E 002°08'1 1.9
2017-Oct-25 14:58N 51°30' E 002°07'0 0.9
2017-Oct-25 14:28N 51°30' E 002°07'1 1.4
2017-Oct-25 14:00N 51°29' E 002°06'1 2.3
2017-Oct-25 13:30N 51°30' E 002°08'1 2.0
2017-Oct-25 12:57N 51°31' E 002°09'0 0.6
2017-Oct-25 12:30N 51°31' E 002°09'0 0.3
2017-Oct-25 12:00N 51°31' E 002°09'2 3.7
2017-Oct-25 11:30N 51°32' E 002°12'1 1.0
2017-Oct-25 10:59N 51°33' E 002°12'0 0.6
2017-Oct-25 10:30N 51°33' E 002°12'1 1.4
2017-Oct-25 10:00N 51°33' E 002°13'0 0.8
2017-Oct-25 09:30N 51°34' E 002°13'0 0.7
2017-Oct-25 09:00N 51°34' E 002°13'1 1.8
2017-Oct-25 08:30N 51°33' E 002°12'1 1.3
2017-Oct-25 08:00N 51°33' E 002°11'1 1.2
2017-Oct-25 07:30N 51°32' E 002°10'2 3.2
2017-Oct-25 07:00N 51°31' E 002°09'0 0.5
2017-Oct-25 06:30N 51°31' E 002°09'0 0.8
2017-Oct-25 06:00N 51°31' E 002°09'1 1.9
2017-Oct-25 05:30N 51°32' E 002°10'1 1.5
2017-Oct-25 05:00N 51°32' E 002°10'2 4.3
2017-Oct-25 04:30N 51°31' E 002°08'5 9.9
2017-Oct-25 04:00N 51°26' E 002°05'510.9
2017-Oct-25 03:30N 51°22' E 001°60'612.0
2017-Oct-25 03:00N 51°17' E 001°55'611.8
2017-Oct-25 02:30N 51°11' E 001°51'612.0
2017-Oct-25 02:01N 51°06' E 001°46'612.3
2017-Oct-25 01:30N 51°01' E 001°40'812.2
2017-Oct-25 00:53N 50°55' E 001°34'  
Track history (hours):
 
Tides and Currents Weather Stations Pressure Air Temp Water Temp Dewpoint Dewpoint Depression Visibility Wind Speed Wind Dir Waves Ship Positions

Sch-135 Galibier

Last reported at 2017-Nov-02 19:58 UTC. Time now 2017-Nov-19 06:34 UTC.
Position N 50°53' E 001°34'.
Warning: this ship's position is 16 days out of date.

Length 35 m.

MMSI: 244630637.

Date/timePositionNaut miles runAvg speedWind from/ knotsBaromVisibWave heightAir tempDewpointWater temp
2017-Nov-02 19:58N 50°53' E 001°34'4 9.7
2017-Nov-02 19:31N 50°57' E 001°38'611.4
2017-Nov-02 19:01N 51°02' E 001°43'510.6
2017-Nov-02 18:31N 51°07' E 001°46'510.7
2017-Nov-02 18:01N 51°12' E 001°44'5 9.6
2017-Nov-02 17:31N 51°15' E 001°49'611.8
2017-Nov-02 17:01N 51°20' E 001°55'611.0
2017-Nov-02 16:30N 51°24' E 001°60'510.4
2017-Nov-02 16:00N 51°29' E 002°05'5 9.7
2017-Nov-02 15:28N 51°32' E 002°11'0 0.3
2017-Nov-02 15:00N 51°32' E 002°11'0 0.5
2017-Nov-02 14:30N 51°32' E 002°11'1 1.5
2017-Nov-02 14:00N 51°31' E 002°10'1 1.8
2017-Nov-02 13:29N 51°31' E 002°09'1 1.3
2017-Nov-02 12:58N 51°31' E 002°08'1 1.9
2017-Nov-02 12:29N 51°30' E 002°08'0 0.1
2017-Nov-02 12:00N 51°30' E 002°08'1 1.1
2017-Nov-02 11:30N 51°30' E 002°07'1 1.7
2017-Nov-02 11:00N 51°29' E 002°06'6 7.9
2017-Nov-02 10:12N 51°33' E 002°14'1 1.1
2017-Nov-02 09:22N 51°34' E 002°14'1 3.5
2017-Nov-02 08:59N 51°34' E 002°12'1 1.2
2017-Nov-02 08:28N 51°33' E 002°13'2 3.4
2017-Nov-02 07:59N 51°35' E 002°15'1 1.2
2017-Nov-02 07:27N 51°35' E 002°15'0 0.8
2017-Nov-02 07:00N 51°36' E 002°15'1 1.4
2017-Nov-02 06:30N 51°35' E 002°17'1 1.1
2017-Nov-02 06:00N 51°36' E 002°17'0 0.4
2017-Nov-02 05:25N 51°36' E 002°17'1 2.2
2017-Nov-02 05:00N 51°37' E 002°18'1 2.6
2017-Nov-02 04:30N 51°36' E 002°17'1 2.9
2017-Nov-02 04:00N 51°35' E 002°15'1 1.2
2017-Nov-02 03:30N 51°34' E 002°15'2 3.5
2017-Nov-02 02:59N 51°36' E 002°17'2 4.2
2017-Nov-02 02:30N 51°34' E 002°14'2 3.6
2017-Nov-02 01:59N 51°33' E 002°12'1 2.5
2017-Nov-02 01:29N 51°34' E 002°14'1 2.3
2017-Nov-02 00:55N 51°35' E 002°15'1 2.0
2017-Nov-02 00:28N 51°35' E 002°16'1 1.4
2017-Nov-02 00:00N 51°36' E 002°17'3 5.9
2017-Nov-01 23:30N 51°34' E 002°14'3 5.9
2017-Nov-01 23:00N 51°32' E 002°10'3 5.5
2017-Nov-01 22:30N 51°30' E 002°07'2 5.0
2017-Nov-01 22:00N 51°28' E 002°04'1 2.6
2017-Nov-01 21:30N 51°29' E 002°05'2 3.3
2017-Nov-01 21:00N 51°30' E 002°07'3 4.2
2017-Nov-01 20:21N 51°31' E 002°12'1 3.1
2017-Nov-01 20:00N 51°31' E 002°13'0 0.1
2017-Nov-01 19:30N 51°31' E 002°13'2 3.0
2017-Nov-01 19:00N 51°32' E 002°11'1 2.1
2017-Nov-01 18:27N 51°32' E 002°10'47 2.9
2017-Nov-01 01:58N 50°50' E 001°33'4 8.9
2017-Nov-01 01:30N 50°46' E 001°34'2 4.9
2017-Nov-01 01:00N 50°44' E 001°35'0 0.3
2017-Nov-01 00:19N 50°43' E 001°35'0 0.0
2017-Oct-31 23:56N 50°43' E 001°35'0 0.0
2017-Oct-31 23:23N 50°43' E 001°35'0 0.5
2017-Oct-31 23:00N 50°44' E 001°35'0 0.0
2017-Oct-31 22:30N 50°44' E 001°35'0 0.0
2017-Oct-31 21:58N 50°44' E 001°35'0 0.2
2017-Oct-31 21:31N 50°44' E 001°35'4 7.3
2017-Oct-31 20:54N 50°48' E 001°34'3 7.6
2017-Oct-31 20:29N 50°51' E 001°34'3 6.5
2017-Oct-31 20:00N 50°54' E 001°35'5 7.3
2017-Oct-31 19:23N 50°58' E 001°40'3 7.8
2017-Oct-31 19:00N 50°60' E 001°43'4 8.5
2017-Oct-31 18:30N 51°03' E 001°47'5 9.5
2017-Oct-31 18:00N 51°06' E 001°53'5 9.6
2017-Oct-31 17:30N 51°10' E 001°57'2 4.1
2017-Oct-31 17:01N 51°12' E 001°57'0 0.9
2017-Oct-31 16:30N 51°13' E 001°58'0 0.9
2017-Oct-31 16:00N 51°13' E 001°58'3 5.6
2017-Oct-31 15:30N 51°14' E 002°02'0 0.7
2017-Oct-31 15:00N 51°14' E 002°03'1 2.6
2017-Oct-31 14:30N 51°14' E 002°05'2 3.4
2017-Oct-31 14:00N 51°14' E 002°02'0 0.5
2017-Oct-31 13:30N 51°14' E 002°02'1 1.8
2017-Oct-31 13:00N 51°13' E 002°01'1 1.4
2017-Oct-31 12:30N 51°12' E 002°00'0 0.8
2017-Oct-31 12:01N 51°12' E 001°60'1 1.8
2017-Oct-31 11:30N 51°11' E 001°59'2 3.3
2017-Oct-31 11:00N 51°13' E 001°59'0 1.0
2017-Oct-31 10:30N 51°13' E 001°59'1 1.5
2017-Oct-31 10:01N 51°12' E 001°58'0 0.7
2017-Oct-31 09:30N 51°12' E 001°59'0 0.9
2017-Oct-31 09:00N 51°12' E 001°58'1 1.8
2017-Oct-31 08:30N 51°11' E 001°57'1 2.4
2017-Oct-31 08:00N 51°12' E 001°57'0 0.9
2017-Oct-31 07:31N 51°12' E 001°57'0 0.6
2017-Oct-31 07:00N 51°12' E 001°56'3 6.7
2017-Oct-31 06:30N 51°13' E 002°01'0 1.0
2017-Oct-31 06:00N 51°13' E 002°01'1 2.9
2017-Oct-31 05:31N 51°14' E 002°03'2 3.8
2017-Oct-31 05:01N 51°14' E 002°00'1 2.8
2017-Oct-31 04:30N 51°13' E 001°58'1 2.7
2017-Oct-31 04:00N 51°12' E 001°56'1 2.4
2017-Oct-31 03:30N 51°12' E 001°55'2 3.9
2017-Oct-31 03:00N 51°13' E 001°57'2 4.6
2017-Oct-31 02:31N 51°14' E 002°00'2 3.2
2017-Oct-31 02:00N 51°14' E 001°58'2 3.3
2017-Oct-31 01:30N 51°13' E 001°56'2 3.4
2017-Oct-31 01:00N 51°14' E 001°58'2 4.1
2017-Oct-31 00:30N 51°15' E 002°00'0 0.1
2017-Oct-31 00:01N 51°15' E 002°00'2 4.3
2017-Oct-30 23:30N 51°14' E 001°58'2 4.1
2017-Oct-30 23:00N 51°12' E 001°56'2 3.1
2017-Oct-30 22:30N 51°13' E 001°58'1 2.9
2017-Oct-30 22:01N 51°15' E 001°58'4 8.3
2017-Oct-30 21:30N 51°19' E 001°56'3 6.4
2017-Oct-30 21:00N 51°22' E 001°56'2 4.9
2017-Oct-30 20:30N 51°24' E 001°59'3 5.2
2017-Oct-30 20:00N 51°26' E 002°01'3 5.4
2017-Oct-30 19:30N 51°27' E 002°04'2 3.6
2017-Oct-30 18:59N 51°29' E 002°06'0 0.7
2017-Oct-30 18:29N 51°29' E 002°07'0 1.0
2017-Oct-30 18:00N 51°30' E 002°07'1 1.3
2017-Oct-30 17:28N 51°30' E 002°07'1 2.0
2017-Oct-30 16:56N 51°31' E 002°09'0 0.7
2017-Oct-30 16:29N 51°31' E 002°09'1 2.0
2017-Oct-30 16:00N 51°31' E 002°10'0 0.7
2017-Oct-30 15:27N 51°31' E 002°10'1 1.4
2017-Oct-30 15:00N 51°32' E 002°11'0 0.9
2017-Oct-30 14:30N 51°32' E 002°11'1 1.0
2017-Oct-30 13:30N 51°33' E 002°12'1 2.2
2017-Oct-30 13:00N 51°34' E 002°12'2 4.8
2017-Oct-30 12:30N 51°32' E 002°10'2 3.5
2017-Oct-30 12:00N 51°30' E 002°08'0 0.7
2017-Oct-30 11:29N 51°30' E 002°08'0 0.5
2017-Oct-30 11:00N 51°30' E 002°08'1 1.4
2017-Oct-30 10:30N 51°30' E 002°07'1 2.1
2017-Oct-30 09:59N 51°29' E 002°06'1 1.7
2017-Oct-30 09:30N 51°28' E 002°05'0 1.0
2017-Oct-30 09:01N 51°28' E 002°04'1 2.7
2017-Oct-30 08:31N 51°27' E 002°03'1 2.5
2017-Oct-30 08:00N 51°26' E 002°03'1 1.2
2017-Oct-30 07:30N 51°27' E 002°03'0 0.8
2017-Oct-30 07:01N 51°26' E 002°02'1 1.9
2017-Oct-30 06:30N 51°25' E 002°03'4 8.9
2017-Oct-30 06:00N 51°21' E 002°02'4 8.5
2017-Oct-30 05:30N 51°17' E 001°60'4 8.5
2017-Oct-30 05:00N 51°13' E 001°56'4 8.3
2017-Oct-30 04:30N 51°11' E 001°51'4 7.8
2017-Oct-30 04:01N 51°08' E 001°47'4 7.2
2017-Oct-30 03:30N 51°05' E 001°44'4 7.1
2017-Oct-30 03:00N 51°02' E 001°41'4 7.1
2017-Oct-30 02:30N 50°59' E 001°38'4 7.2
2017-Oct-30 01:59N 50°56' E 001°35'3 6.8
2017-Oct-30 01:30N 50°53' E 001°33'  
2017-Oct-26 18:42N 50°52' E 001°33'210.6
2017-Oct-26 18:29N 50°54' E 001°35'5 9.9
2017-Oct-26 17:58N 50°58' E 001°41'4 9.4
2017-Oct-26 17:30N 51°01' E 001°46'6 8.9
2017-Oct-26 16:51N 51°05' E 001°52'1 2.5
2017-Oct-26 16:30N 51°06' E 001°53'2 4.0
2017-Oct-26 16:00N 51°08' E 001°54'1 1.4
2017-Oct-26 15:30N 51°07' E 001°53'1 2.8
2017-Oct-26 15:00N 51°07' E 001°51'2 3.2
2017-Oct-26 14:31N 51°09' E 001°52'0 0.8
2017-Oct-26 14:00N 51°09' E 001°53'1 2.4
2017-Oct-26 13:30N 51°10' E 001°54'1 3.0
2017-Oct-26 13:00N 51°11' E 001°55'1 1.7
2017-Oct-26 12:30N 51°12' E 001°56'1 2.0
2017-Oct-26 12:00N 51°12' E 001°58'0 0.7
2017-Oct-26 11:30N 51°12' E 001°57'1 1.2
2017-Oct-26 11:00N 51°12' E 001°58'1 2.9
2017-Oct-26 10:30N 51°13' E 001°60'1 1.1
2017-Oct-26 10:01N 51°13' E 002°01'1 1.4
2017-Oct-26 09:30N 51°13' E 002°01'1 1.6
2017-Oct-26 09:00N 51°14' E 002°03'1 2.7
2017-Oct-26 08:30N 51°13' E 002°01'1 2.8
2017-Oct-26 08:00N 51°12' E 001°59'0 0.5
2017-Oct-26 07:31N 51°12' E 001°59'0 0.9
2017-Oct-26 07:00N 51°12' E 001°59'1 1.2
2017-Oct-26 06:30N 51°12' E 001°58'1 2.5
2017-Oct-26 06:00N 51°12' E 001°56'1 2.5
2017-Oct-26 05:30N 51°13' E 001°57'2 3.7
2017-Oct-26 05:00N 51°14' E 001°60'1 1.4
2017-Oct-26 04:30N 51°13' E 001°59'3 5.1
2017-Oct-26 04:00N 51°12' E 001°55'1 2.2
2017-Oct-26 03:30N 51°13' E 001°56'1 2.4
2017-Oct-26 03:00N 51°14' E 001°58'1 2.7
2017-Oct-26 02:30N 51°14' E 001°60'0 0.8
2017-Oct-26 02:00N 51°15' E 001°59'2 4.7
2017-Oct-26 01:30N 51°13' E 001°56'2 4.2
2017-Oct-26 01:00N 51°12' E 001°54'2 3.7
2017-Oct-26 00:30N 51°11' E 001°52'1 1.5
2017-Oct-26 00:00N 51°10' E 001°52'1 1.4
2017-Oct-25 23:30N 51°11' E 001°53'1 1.7
2017-Oct-25 23:00N 51°11' E 001°54'1 1.9
2017-Oct-25 22:30N 51°12' E 001°55'2 4.7
2017-Oct-25 22:00N 51°14' E 001°56'4 7.6
2017-Oct-25 21:30N 51°18' E 001°55'4 7.2
2017-Oct-25 21:00N 51°21' E 001°57'3 6.7
2017-Oct-25 20:31N 51°24' E 001°60'3 6.4
2017-Oct-25 20:00N 51°27' E 002°03'2 3.7
2017-Oct-25 19:29N 51°28' E 002°05'2 3.3
2017-Oct-25 18:59N 51°29' E 002°06'2 4.0
2017-Oct-25 18:30N 51°31' E 002°08'1 1.8
2017-Oct-25 18:00N 51°32' E 002°09'1 1.1
2017-Oct-25 17:28N 51°31' E 002°08'0 1.0
2017-Oct-25 17:00N 51°31' E 002°08'1 1.1
2017-Oct-25 16:30N 51°31' E 002°09'0 0.9
2017-Oct-25 15:59N 51°30' E 002°09'1 2.0
2017-Oct-25 15:30N 51°29' E 002°08'1 1.9
2017-Oct-25 14:58N 51°30' E 002°07'0 0.9
2017-Oct-25 14:28N 51°30' E 002°07'1 1.4
2017-Oct-25 14:00N 51°29' E 002°06'1 2.3
2017-Oct-25 13:30N 51°30' E 002°08'1 2.0
2017-Oct-25 12:57N 51°31' E 002°09'0 0.6
2017-Oct-25 12:30N 51°31' E 002°09'0 0.3
2017-Oct-25 12:00N 51°31' E 002°09'2 3.7
2017-Oct-25 11:30N 51°32' E 002°12'1 1.0
2017-Oct-25 10:59N 51°33' E 002°12'0 0.6
2017-Oct-25 10:30N 51°33' E 002°12'1 1.4
2017-Oct-25 10:00N 51°33' E 002°13'0 0.8
2017-Oct-25 09:30N 51°34' E 002°13'0 0.7
2017-Oct-25 09:00N 51°34' E 002°13'1 1.8
2017-Oct-25 08:30N 51°33' E 002°12'1 1.3
2017-Oct-25 08:00N 51°33' E 002°11'1 1.2
2017-Oct-25 07:30N 51°32' E 002°10'2 3.2
2017-Oct-25 07:00N 51°31' E 002°09'0 0.5
2017-Oct-25 06:30N 51°31' E 002°09'0 0.8
2017-Oct-25 06:00N 51°31' E 002°09'1 1.9
2017-Oct-25 05:30N 51°32' E 002°10'1 1.5
2017-Oct-25 05:00N 51°32' E 002°10'2 4.3
2017-Oct-25 04:30N 51°31' E 002°08'5 9.9
2017-Oct-25 04:00N 51°26' E 002°05'510.9
2017-Oct-25 03:30N 51°22' E 001°60'612.0
2017-Oct-25 03:00N 51°17' E 001°55'611.8
2017-Oct-25 02:30N 51°11' E 001°51'612.0
2017-Oct-25 02:01N 51°06' E 001°46'612.3
2017-Oct-25 01:30N 51°01' E 001°40'812.2
2017-Oct-25 00:53N 50°55' E 001°34'  

Dump ship's entire track history